createdAt,value
2018-12-18T00:00:18.246Z,12.70
2018-12-18T00:02:47.669Z,12.07
2018-12-18T00:05:20.778Z,9.80
2018-12-18T00:07:48.316Z,14.00
2018-12-18T00:10:15.774Z,10.90
2018-12-18T00:12:43.243Z,9.67
2018-12-18T00:15:10.688Z,12.60
2018-12-18T00:17:38.159Z,12.67
2018-12-18T00:20:05.722Z,11.67
2018-12-18T00:22:33.184Z,11.23
2018-12-18T00:25:00.616Z,10.40
2018-12-18T00:27:28.081Z,11.77
2018-12-18T00:29:55.532Z,13.57
2018-12-18T00:32:22.981Z,11.67
2018-12-18T00:34:50.436Z,10.97
2018-12-18T00:37:17.906Z,15.17
2018-12-18T00:39:45.358Z,9.43
2018-12-18T00:42:13.805Z,11.87
2018-12-18T00:44:41.265Z,9.30
2018-12-18T00:47:08.704Z,10.90
2018-12-18T00:49:36.156Z,12.57
2018-12-18T00:52:03.595Z,12.50
2018-12-18T00:54:31.066Z,11.77
2018-12-18T00:56:58.518Z,15.50
2018-12-18T00:59:25.972Z,9.27
2018-12-18T01:01:59.039Z,10.63
2018-12-18T01:04:26.708Z,10.13
2018-12-18T01:06:54.146Z,13.30
2018-12-18T01:09:21.662Z,11.60
2018-12-18T01:11:49.095Z,12.20
2018-12-18T01:14:16.559Z,12.37
2018-12-18T01:16:44.078Z,14.30
2018-12-18T01:19:11.528Z,15.73
2018-12-18T01:21:38.996Z,15.13
2018-12-18T01:24:06.445Z,9.27
2018-12-18T01:26:33.880Z,12.13
2018-12-18T01:29:01.336Z,10.60
2018-12-18T01:31:28.794Z,10.03
2018-12-18T01:33:59.257Z,12.57
2018-12-18T01:36:27.754Z,9.43
2018-12-18T01:38:55.309Z,9.20
2018-12-18T01:41:22.765Z,9.40
2018-12-18T01:43:50.216Z,10.00
2018-12-18T01:46:17.660Z,10.60
2018-12-18T01:48:45.215Z,26.73
2018-12-18T01:51:12.658Z,18.80
2018-12-18T01:53:40.108Z,11.93
2018-12-18T01:56:07.548Z,11.70
2018-12-18T01:58:34.997Z,9.63
2018-12-18T02:01:02.517Z,9.57
2018-12-18T02:03:30.031Z,9.00
2018-12-18T02:05:57.581Z,14.30
2018-12-18T02:08:25.096Z,10.03
2018-12-18T02:10:52.532Z,7.13
2018-12-18T02:13:19.998Z,8.33
2018-12-18T02:15:47.446Z,8.43
2018-12-18T02:18:14.888Z,7.30
2018-12-18T02:20:42.334Z,7.13
2018-12-18T02:23:09.767Z,10.27
2018-12-18T02:25:37.223Z,9.93
2018-12-18T02:28:04.677Z,11.30
2018-12-18T02:30:32.577Z,8.23
2018-12-18T02:33:00.034Z,10.37
2018-12-18T02:35:27.506Z,10.07
2018-12-18T02:37:55.018Z,7.87
2018-12-18T02:40:22.474Z,13.07
2018-12-18T02:42:49.928Z,9.23
2018-12-18T02:45:17.392Z,8.10
2018-12-18T02:47:44.829Z,7.90
2018-12-18T02:50:12.277Z,12.17
2018-12-18T02:52:39.712Z,8.27
2018-12-18T02:55:07.174Z,14.17
2018-12-18T02:57:34.603Z,6.60
2018-12-18T03:00:02.125Z,7.83
2018-12-18T03:02:29.564Z,8.07
2018-12-18T03:04:57.071Z,7.70
2018-12-18T03:07:24.571Z,12.83
2018-12-18T03:09:52.123Z,7.23
2018-12-18T03:12:19.574Z,7.90
2018-12-18T03:14:47.025Z,8.40
2018-12-18T03:17:14.547Z,7.83
2018-12-18T03:19:42.091Z,8.73
2018-12-18T03:22:09.598Z,6.57
2018-12-18T03:24:37.132Z,6.43
2018-12-18T03:27:04.596Z,8.03
2018-12-18T03:29:32.045Z,7.77
2018-12-18T03:32:01.438Z,7.97
2018-12-18T03:34:28.921Z,11.40
2018-12-18T03:36:56.354Z,20.00
2018-12-18T03:39:23.808Z,23.33
2018-12-18T03:41:51.262Z,13.80
2018-12-18T03:44:18.722Z,10.87
2018-12-18T03:46:46.174Z,14.03
2018-12-18T03:49:13.631Z,12.87
2018-12-18T03:51:41.161Z,11.00
2018-12-18T03:54:08.645Z,18.93
2018-12-18T03:56:36.123Z,25.50
2018-12-18T03:59:03.583Z,13.13
2018-12-18T04:01:31.024Z,12.20
2018-12-18T04:03:58.506Z,11.90
2018-12-18T04:06:25.973Z,14.17
2018-12-18T04:08:53.432Z,17.20
2018-12-18T04:11:20.879Z,10.97
2018-12-18T04:13:48.348Z,11.40
2018-12-18T04:16:15.792Z,11.67
2018-12-18T04:18:43.247Z,9.87
2018-12-18T04:21:10.686Z,9.97
2018-12-18T04:23:38.125Z,9.83
2018-12-18T04:26:05.640Z,16.33
2018-12-18T04:28:33.099Z,9.03
2018-12-18T04:31:00.558Z,12.07
2018-12-18T04:33:28.007Z,14.13
2018-12-18T04:35:55.460Z,12.70
2018-12-18T04:38:22.908Z,13.40
2018-12-18T04:40:50.373Z,14.10
2018-12-18T04:43:17.813Z,13.10
2018-12-18T04:45:45.274Z,11.30
2018-12-18T04:48:12.731Z,9.40
2018-12-18T04:50:40.275Z,12.20
2018-12-18T04:53:07.728Z,11.77
2018-12-18T04:55:35.204Z,17.17
2018-12-18T04:58:02.660Z,16.73
2018-12-18T05:00:30.116Z,18.00
2018-12-18T05:02:57.560Z,20.10
2018-12-18T05:05:25.026Z,17.20
2018-12-18T05:07:52.475Z,17.00
2018-12-18T05:10:19.932Z,16.80
2018-12-18T05:12:47.392Z,10.67
2018-12-18T05:15:14.843Z,10.87
2018-12-18T05:17:42.293Z,8.60
2018-12-18T05:20:09.732Z,8.70
2018-12-18T05:22:37.172Z,12.70
2018-12-18T05:25:04.684Z,11.93
2018-12-18T05:27:32.131Z,10.70
2018-12-18T05:29:59.618Z,12.43
2018-12-18T05:32:27.049Z,10.70
2018-12-18T05:34:56.648Z,13.17
2018-12-18T05:37:25.861Z,11.70
2018-12-18T05:39:53.314Z,15.17
2018-12-18T05:42:20.766Z,13.17
2018-12-18T05:44:48.213Z,12.37
2018-12-18T05:47:15.647Z,11.97
2018-12-18T05:49:43.102Z,12.47
2018-12-18T05:52:10.559Z,12.30
2018-12-18T05:54:38.016Z,20.07
2018-12-18T05:57:05.469Z,17.10
2018-12-18T05:59:32.952Z,15.73
2018-12-18T06:02:00.399Z,16.97
2018-12-18T06:04:27.867Z,15.30
2018-12-18T06:06:55.301Z,16.33
2018-12-18T06:09:22.771Z,17.00
2018-12-18T06:11:50.232Z,14.90
2018-12-18T06:14:17.676Z,16.80
2018-12-18T06:16:45.112Z,18.30
2018-12-18T06:21:46.560Z,18.90
2018-12-18T06:24:14.000Z,18.10
2018-12-18T06:26:41.452Z,22.33
2018-12-18T06:29:08.907Z,16.80
2018-12-18T06:31:36.387Z,18.60
2018-12-18T06:34:03.894Z,20.60
2018-12-18T06:36:31.359Z,27.17
2018-12-18T06:38:58.821Z,19.90
2018-12-18T06:41:26.276Z,19.27
2018-12-18T06:43:53.717Z,22.43
2018-12-18T06:46:21.169Z,16.50
2018-12-18T06:48:48.620Z,21.60
2018-12-18T06:51:16.081Z,26.50
2018-12-18T06:53:43.524Z,20.80
2018-12-18T06:56:10.994Z,20.93
2018-12-18T06:58:38.473Z,19.63
2018-12-18T07:01:05.945Z,20.07
2018-12-18T07:03:33.387Z,21.50
2018-12-18T07:06:01.176Z,18.30
2018-12-18T07:08:28.624Z,22.50
2018-12-18T07:10:56.143Z,23.47
2018-12-18T07:13:23.598Z,21.70
2018-12-18T07:15:51.052Z,25.73
2018-12-18T07:18:18.495Z,28.30
2018-12-18T07:20:50.148Z,25.47
2018-12-18T07:23:17.592Z,20.70
2018-12-18T07:25:45.071Z,22.60
2018-12-18T07:28:12.598Z,24.80
2018-12-18T07:30:40.073Z,20.77
2018-12-18T07:33:07.525Z,19.83
2018-12-18T07:35:35.004Z,18.50
2018-12-18T07:38:02.449Z,23.77
2018-12-18T07:40:29.904Z,27.37
2018-12-18T07:42:57.355Z,19.60
2018-12-18T07:45:24.867Z,22.60
2018-12-18T07:47:52.328Z,21.77
2018-12-18T07:50:19.791Z,23.40
2018-12-18T07:52:47.232Z,22.70
2018-12-18T07:55:14.696Z,34.20
2018-12-18T07:57:42.152Z,35.33
2018-12-18T08:00:13.233Z,31.67
2018-12-18T08:02:40.694Z,26.40
2018-12-18T08:05:08.161Z,24.63
2018-12-18T08:07:35.597Z,19.30
2018-12-18T08:10:03.715Z,26.83
2018-12-18T08:12:31.192Z,26.47
2018-12-18T08:14:58.650Z,30.13
2018-12-18T08:17:26.106Z,30.70
2018-12-18T08:19:53.560Z,28.20
2018-12-18T08:22:21.010Z,31.00
2018-12-18T08:24:48.450Z,26.87
2018-12-18T08:27:15.908Z,27.30
2018-12-18T08:29:43.357Z,26.67
2018-12-18T08:32:10.919Z,32.23
2018-12-18T08:34:38.374Z,31.20
2018-12-18T08:37:05.847Z,40.83
2018-12-18T08:39:33.362Z,40.87
2018-12-18T08:42:00.835Z,37.20
2018-12-18T08:44:28.282Z,47.33
2018-12-18T08:46:55.795Z,47.73
2018-12-18T08:49:23.247Z,57.60
2018-12-18T08:51:50.704Z,51.93
2018-12-18T08:54:18.162Z,48.07
2018-12-18T08:56:45.616Z,47.30
2018-12-18T08:59:13.057Z,36.50
2018-12-18T09:01:40.525Z,43.80
2018-12-18T09:04:07.967Z,42.47
2018-12-18T09:06:35.425Z,45.60
2018-12-18T09:09:03.675Z,36.87
2018-12-18T09:11:31.128Z,41.40
2018-12-18T09:13:58.582Z,33.00
2018-12-18T09:16:31.818Z,29.80
2018-12-18T09:18:59.275Z,34.17
2018-12-18T09:21:26.776Z,28.17
2018-12-18T09:23:54.241Z,36.17
2018-12-18T09:26:21.707Z,30.50
2018-12-18T09:28:49.155Z,30.37
2018-12-18T09:31:16.622Z,36.60
2018-12-18T09:33:45.058Z,28.37
2018-12-18T09:36:12.508Z,34.23
2018-12-18T09:38:45.600Z,31.20
2018-12-18T09:41:18.914Z,29.67
2018-12-18T09:43:52.140Z,43.53
2018-12-18T09:46:19.604Z,41.43
2018-12-18T09:48:47.045Z,46.43
2018-12-18T09:51:14.515Z,43.20
2018-12-18T09:53:41.988Z,44.80
2018-12-18T09:56:16.272Z,72.03
2018-12-18T09:58:43.796Z,41.03
2018-12-18T10:01:11.361Z,73.80
2018-12-18T10:03:38.862Z,49.90
2018-12-18T10:06:06.401Z,42.97
2018-12-18T10:08:33.859Z,52.90
2018-12-18T10:11:01.302Z,51.53
2018-12-18T10:13:28.766Z,50.77
2018-12-18T10:16:04.208Z,55.17
2018-12-18T10:18:31.672Z,47.80
2018-12-18T10:20:59.116Z,52.13
2018-12-18T10:23:26.587Z,41.67
2018-12-18T10:25:54.097Z,30.00
2018-12-18T10:28:21.582Z,29.30
2018-12-18T10:30:49.091Z,29.97
2018-12-18T10:33:16.597Z,27.80
2018-12-18T10:35:44.075Z,23.83
2018-12-18T10:38:11.532Z,21.77
2018-12-18T10:40:38.987Z,22.03
2018-12-18T10:43:06.444Z,17.17
2018-12-18T10:45:33.966Z,17.80
2018-12-18T10:48:01.414Z,20.97
2018-12-18T10:50:28.901Z,18.80
2018-12-18T10:52:56.371Z,17.50
2018-12-18T10:55:23.810Z,16.80
2018-12-18T10:57:51.249Z,25.00
2018-12-18T11:00:20.827Z,20.70
2018-12-18T11:02:48.290Z,21.10
2018-12-18T11:05:15.737Z,20.87
2018-12-18T11:07:43.206Z,17.47
2018-12-18T11:10:10.675Z,18.57
2018-12-18T11:12:38.801Z,19.70
2018-12-18T11:15:06.844Z,19.80
2018-12-18T11:17:34.998Z,22.63
2018-12-18T11:20:04.897Z,18.83
2018-12-18T11:22:32.352Z,18.60
2018-12-18T11:24:59.876Z,18.87
2018-12-18T11:27:27.312Z,18.07
2018-12-18T11:29:54.768Z,26.43
2018-12-18T11:32:22.233Z,14.03
2018-12-18T11:34:49.683Z,21.90
2018-12-18T11:37:17.137Z,17.60
2018-12-18T11:39:44.672Z,14.23
2018-12-18T11:42:12.126Z,13.73
2018-12-18T11:44:39.591Z,17.83
2018-12-18T11:47:07.028Z,17.77
2018-12-18T11:49:34.499Z,13.07
2018-12-18T11:52:01.933Z,15.40
2018-12-18T11:54:29.385Z,19.43
2018-12-18T11:56:56.851Z,18.47
2018-12-18T11:59:24.318Z,16.40
2018-12-18T12:01:51.768Z,14.63
2018-12-18T12:04:19.221Z,14.57
2018-12-18T12:06:46.681Z,13.63
2018-12-18T12:09:14.156Z,13.90
2018-12-18T12:11:41.601Z,13.57
2018-12-18T12:14:09.146Z,13.50
2018-12-18T12:16:36.588Z,11.33
2018-12-18T12:19:04.101Z,12.43
2018-12-18T12:21:31.548Z,13.23
2018-12-18T12:23:59.020Z,14.47
2018-12-18T12:26:33.288Z,13.07
2018-12-18T12:29:00.864Z,10.20
2018-12-18T12:31:28.351Z,16.70
2018-12-18T12:33:55.819Z,14.00
2018-12-18T12:36:29.426Z,13.07
2018-12-18T12:38:52.716Z,13.17
2018-12-18T12:41:20.175Z,18.37
2018-12-18T12:43:47.631Z,14.00
2018-12-18T12:46:15.102Z,11.67
2018-12-18T12:48:48.333Z,11.07
2018-12-18T12:51:15.795Z,13.33
2018-12-18T12:53:43.300Z,11.90
2018-12-18T12:56:10.772Z,18.53
2018-12-18T12:58:38.359Z,10.53
2018-12-18T13:01:05.927Z,10.07
2018-12-18T13:03:33.365Z,9.60
2018-12-18T13:06:00.808Z,8.37
2018-12-18T13:08:28.250Z,7.73
2018-12-18T13:10:56.673Z,7.63
2018-12-18T13:13:24.147Z,8.73
2018-12-18T13:15:51.624Z,6.17
2018-12-18T13:18:19.060Z,11.23
2018-12-18T13:20:46.512Z,10.43
2018-12-18T13:23:13.940Z,6.40
2018-12-18T13:25:41.386Z,5.00
2018-12-18T13:28:08.833Z,3.73
2018-12-18T13:30:36.287Z,3.93
2018-12-18T13:33:03.727Z,5.20
2018-12-18T13:35:31.193Z,5.10
2018-12-18T13:37:58.680Z,7.70
2018-12-18T13:40:26.124Z,6.10
2018-12-18T13:42:53.574Z,2.30
2018-12-18T13:45:21.632Z,5.60
2018-12-18T13:47:49.056Z,5.03
2018-12-18T13:50:17.510Z,5.70
2018-12-18T13:52:44.944Z,4.87
2018-12-18T13:55:12.402Z,6.83
2018-12-18T13:57:40.819Z,9.97
2018-12-18T14:00:08.333Z,6.53
2018-12-18T14:02:35.764Z,9.07
2018-12-18T14:05:03.461Z,4.57
2018-12-18T14:07:30.978Z,6.13
2018-12-18T14:09:58.594Z,4.83
2018-12-18T14:12:26.035Z,8.13
2018-12-18T14:14:53.484Z,3.83
2018-12-18T14:17:21.886Z,3.67
2018-12-18T14:19:49.332Z,4.70
2018-12-18T14:22:16.948Z,5.67
2018-12-18T14:24:44.441Z,5.60
2018-12-18T14:27:11.890Z,7.77
2018-12-18T14:29:42.761Z,9.43
2018-12-18T14:32:10.214Z,5.00
2018-12-18T14:34:37.762Z,6.03
2018-12-18T14:37:05.216Z,4.80
2018-12-18T14:39:32.691Z,4.37
2018-12-18T14:42:00.136Z,4.37
2018-12-18T14:44:27.592Z,10.63
2018-12-18T14:46:55.177Z,12.03
2018-12-18T14:49:22.625Z,11.50
2018-12-18T14:51:50.187Z,10.70
2018-12-18T14:54:21.250Z,16.27
2018-12-18T14:56:48.841Z,12.97
2018-12-18T14:59:16.649Z,11.90
2018-12-18T15:01:45.056Z,11.43
2018-12-18T15:04:12.496Z,11.47
2018-12-18T15:06:39.957Z,12.20
2018-12-18T15:09:07.462Z,11.67
2018-12-18T15:11:35.006Z,11.57
2018-12-18T15:14:04.378Z,9.80
2018-12-18T15:16:37.601Z,8.60
2018-12-18T15:19:05.560Z,9.20
2018-12-18T15:21:33.049Z,6.47
2018-12-18T15:24:04.093Z,4.50
2018-12-18T15:26:31.718Z,10.97
2018-12-18T15:29:01.091Z,6.73
2018-12-18T15:31:28.536Z,11.27
2018-12-18T15:34:10.807Z,7.53
2018-12-18T15:36:38.270Z,5.07
2018-12-18T15:39:06.297Z,6.87
2018-12-18T15:41:33.763Z,8.03
2018-12-18T15:44:02.264Z,8.33
2018-12-18T15:46:29.727Z,10.37
2018-12-18T15:48:57.171Z,6.97
2018-12-18T15:51:24.645Z,9.63
2018-12-18T15:53:52.156Z,9.33
2018-12-18T15:56:19.686Z,4.93
2018-12-18T16:04:34.588Z,6.47
2018-12-18T16:07:02.045Z,5.43
2018-12-18T16:09:29.480Z,7.83
2018-12-18T16:11:56.975Z,7.70
2018-12-18T16:14:24.438Z,4.77
2018-12-18T16:16:51.910Z,9.43
2018-12-18T16:19:19.494Z,7.20
2018-12-18T16:21:46.962Z,7.93
2018-12-18T16:24:14.595Z,4.53
2018-12-18T16:26:42.045Z,6.53
2018-12-18T16:29:09.492Z,14.20
2018-12-18T16:31:36.949Z,6.90
2018-12-18T16:34:04.376Z,9.77
2018-12-18T16:36:31.826Z,8.17
2018-12-18T16:39:01.248Z,6.60
2018-12-18T16:41:28.724Z,6.90
2018-12-18T16:43:56.154Z,6.17
2018-12-18T16:46:23.596Z,6.13
2018-12-18T16:48:51.062Z,10.73
2018-12-18T16:51:23.247Z,7.83
2018-12-18T16:53:50.696Z,9.37
2018-12-18T16:56:18.173Z,9.63
2018-12-18T16:58:45.623Z,8.40
2018-12-18T17:01:13.105Z,10.83
2018-12-18T17:03:40.648Z,8.17
2018-12-18T17:06:08.085Z,8.40
2018-12-18T17:08:35.540Z,11.30
2018-12-18T17:11:03.044Z,9.63
2018-12-18T17:13:30.496Z,10.20
2018-12-18T17:15:57.935Z,12.17
2018-12-18T17:18:25.391Z,13.03
2018-12-18T17:20:52.832Z,11.00
2018-12-18T17:23:20.289Z,12.50
2018-12-18T17:25:47.735Z,9.40
2018-12-18T17:28:15.256Z,13.37
2018-12-18T17:30:42.691Z,16.60
2018-12-18T17:33:10.157Z,9.83
2018-12-18T17:35:38.574Z,15.43
2018-12-18T17:38:06.193Z,11.80
2018-12-18T17:40:34.796Z,12.37
2018-12-18T17:43:02.252Z,15.30
2018-12-18T17:45:29.714Z,8.90
2018-12-18T17:47:57.168Z,14.23
2018-12-18T17:50:24.613Z,10.80
2018-12-18T17:52:52.123Z,11.87
2018-12-18T17:55:19.578Z,14.40
2018-12-18T17:57:47.021Z,10.73
2018-12-18T18:00:14.466Z,11.60
2018-12-18T18:02:41.919Z,11.70
2018-12-18T18:05:09.364Z,14.80
2018-12-18T18:07:42.781Z,11.70
2018-12-18T18:10:06.323Z,13.00
2018-12-18T18:12:33.772Z,15.50
2018-12-18T18:15:01.241Z,11.77
2018-12-18T18:17:28.699Z,12.70
2018-12-18T18:20:01.607Z,12.87
2018-12-18T18:22:29.045Z,8.73
2018-12-18T18:24:56.476Z,11.83
2018-12-18T18:27:23.936Z,9.40
2018-12-18T18:29:51.393Z,14.87
2018-12-18T18:32:18.844Z,12.37
2018-12-18T18:34:46.294Z,11.03
2018-12-18T18:37:13.736Z,13.70
2018-12-18T18:39:41.185Z,11.03
2018-12-18T18:42:08.627Z,8.83
2018-12-18T18:44:36.088Z,10.13
2018-12-18T18:47:03.539Z,10.80
2018-12-18T18:49:30.984Z,10.93
2018-12-18T18:51:58.447Z,11.30
2018-12-18T18:54:25.900Z,13.67
2018-12-18T18:56:53.347Z,9.50
2018-12-18T18:59:20.804Z,10.60
2018-12-18T19:01:48.254Z,11.70
2018-12-18T19:04:15.699Z,9.13
2018-12-18T19:06:43.810Z,13.70
2018-12-18T19:09:11.260Z,11.67
2018-12-18T19:11:38.697Z,13.10
2018-12-18T19:14:06.153Z,14.43
2018-12-18T19:16:33.617Z,12.20
2018-12-18T19:19:01.096Z,11.80
2018-12-18T19:21:28.620Z,14.60
2018-12-18T19:23:56.073Z,13.67
2018-12-18T19:26:23.530Z,13.77
2018-12-18T19:28:50.985Z,19.77
2018-12-18T19:31:18.598Z,21.97
2018-12-18T19:33:46.052Z,15.00
2018-12-18T19:36:14.552Z,13.40
2018-12-18T19:38:42.005Z,12.93
2018-12-18T19:41:09.549Z,13.10
2018-12-18T19:43:37.000Z,21.57
2018-12-18T19:46:04.462Z,16.67
2018-12-18T19:48:32.193Z,13.73
2018-12-18T19:50:59.644Z,14.50
2018-12-18T19:53:27.124Z,17.03
2018-12-18T19:55:54.560Z,12.10
2018-12-18T19:58:22.017Z,15.03
2018-12-18T20:00:49.481Z,11.97
2018-12-18T20:03:16.926Z,12.50
2018-12-18T20:05:44.382Z,15.60
2018-12-18T20:08:11.895Z,13.77
2018-12-18T20:10:39.391Z,18.03
2018-12-18T20:13:06.947Z,17.27
2018-12-18T20:15:35.328Z,15.80
2018-12-18T20:18:03.825Z,20.10
2018-12-18T20:20:31.294Z,15.90
2018-12-18T20:22:58.741Z,19.77
2018-12-18T20:25:26.200Z,19.00
2018-12-18T20:27:57.511Z,17.73
2018-12-18T20:30:24.979Z,23.60
2018-12-18T20:32:52.460Z,21.80
2018-12-18T20:35:20.938Z,22.87
2018-12-18T20:37:48.390Z,26.20
2018-12-18T20:40:15.839Z,25.60
2018-12-18T20:42:43.300Z,28.77
2018-12-18T20:45:10.747Z,20.00
2018-12-18T20:47:38.215Z,25.73
2018-12-18T20:50:06.288Z,27.80
2018-12-18T20:52:33.768Z,20.10
2018-12-18T20:55:01.220Z,17.70
2018-12-18T20:57:28.671Z,22.40
2018-12-18T20:59:56.130Z,23.40
2018-12-18T21:02:23.931Z,24.27
2018-12-18T21:04:51.394Z,26.47
2018-12-18T21:07:18.897Z,22.53
2018-12-18T21:09:46.367Z,20.50
2018-12-18T21:12:13.809Z,21.70
2018-12-18T21:14:41.282Z,22.93
2018-12-18T21:17:09.647Z,21.53
2018-12-18T21:19:38.020Z,20.33
2018-12-18T21:22:08.615Z,25.67
2018-12-18T21:24:39.498Z,22.00
2018-12-18T21:27:06.950Z,18.97
2018-12-18T21:29:34.516Z,21.80
2018-12-18T21:32:01.970Z,20.77
2018-12-18T21:34:29.420Z,22.00
2018-12-18T21:36:57.784Z,24.17
2018-12-18T21:39:25.258Z,19.77
2018-12-18T21:41:52.711Z,20.80
2018-12-18T21:44:20.226Z,27.20
2018-12-18T21:46:47.992Z,20.90
2018-12-18T21:49:15.669Z,23.00
2018-12-18T21:51:43.164Z,23.77
2018-12-18T21:54:10.620Z,20.07
2018-12-18T21:56:38.074Z,23.00
2018-12-18T21:59:05.528Z,19.80
2018-12-18T22:01:32.979Z,28.10
2018-12-18T22:04:00.453Z,23.90
2018-12-18T22:06:27.888Z,21.33
2018-12-18T22:08:55.351Z,21.87
2018-12-18T22:11:22.788Z,21.77
2018-12-18T22:13:50.233Z,20.80
2018-12-18T22:16:17.687Z,26.07
2018-12-18T22:18:45.120Z,18.90
2018-12-18T22:21:12.572Z,25.03
2018-12-18T22:23:40.035Z,25.63
2018-12-18T22:26:07.483Z,23.53
2018-12-18T22:28:34.943Z,20.20
2018-12-18T22:31:02.400Z,24.23
2018-12-18T22:33:29.865Z,22.07
2018-12-18T22:35:57.418Z,22.20
2018-12-18T22:38:25.775Z,22.93
2018-12-18T22:40:53.228Z,22.73
2018-12-18T22:43:20.706Z,23.13
2018-12-18T22:45:48.167Z,18.33
2018-12-18T22:51:06.459Z,22.57
2018-12-18T22:56:24.080Z,21.03
2018-12-18T22:58:51.520Z,22.50
2018-12-18T23:01:24.639Z,23.03
2018-12-18T23:03:52.087Z,22.50
2018-12-18T23:06:19.538Z,20.80
2018-12-18T23:08:50.283Z,21.57
2018-12-18T23:11:16.444Z,24.03
2018-12-18T23:13:43.885Z,27.27
2018-12-18T23:16:11.345Z,22.40
2018-12-18T23:18:38.797Z,25.30
2018-12-18T23:21:06.252Z,24.10
2018-12-18T23:23:33.700Z,19.73
2018-12-18T23:26:01.152Z,25.57
2018-12-18T23:28:28.596Z,23.43
2018-12-18T23:30:56.067Z,30.77
2018-12-18T23:33:23.499Z,24.87
2018-12-18T23:35:50.964Z,27.47
2018-12-18T23:38:18.412Z,27.73
2018-12-18T23:40:45.877Z,24.33
2018-12-18T23:43:13.338Z,25.17
2018-12-18T23:45:40.806Z,23.20
2018-12-18T23:48:08.344Z,23.37
2018-12-18T23:50:35.807Z,22.70
2018-12-18T23:53:03.296Z,24.03
2018-12-18T23:55:30.748Z,24.73
2018-12-18T23:57:58.203Z,24.83
